Flugplatz Oberpfaffenhofen

Bericht für EDMO

vom 27.09. um 00:50 UTC

Wind 18 kt aus 240° in Böen 28 kt

Sichtweite 10 km oder mehr

aufgelockert bewölkt in 2000 ft

aufgebrochene Bewölkung in 20000 ft

Temperatur 6.0°C

Taupunkt 3.0°C

Luftfeuchtigkeit 81%

Luftdruck 1002 hPa

EDMO 270050Z AUTO 24018G28KT 9999 // SCT020/// BKN200/// 06/03 Q1002
Keine Prognose (TAF) verfügbar.
Impressum